KERV/ERV METAR and TAF weather

Enter ICAO airport designator
Station Type Date Time Source
KERV METAR 2019/08/18 18:55 UTC NOAA

KERV 181855Z AUTO 14009KT 10SM CLR 34/21 A2993 RMK AO2 T03390209


Station Type Date Time Source
KERV Decoded METAR 2019/08/18 18:55 UTC NOAA

Station name not available
Aug 18, 2019 - 02:55 PM EDT / 2019.08.18 1855 UTC
Wind: from the SE (140 degrees) at 10 MPH (9 KT):0
Visibility: 10 mile(s):0
Sky conditions: clear
Temperature: 93.0 F (33.9 C)
Heat index: 98.4 F (36.9 C):1
Dew Point: 69.6 F (20.9 C)
Relative Humidity: 46%
Pressure (altimeter): 29.93 in. Hg (1013 hPa)
ob: KERV 181855Z AUTO 14009KT 10SM CLR 34/21 A2993 RMK AO2 T03390209
cycle: 19

Station Type Date Time Source
KERV TAF UTC NOAA

Error!

Example: see airport list